Time;durP1;ratioP1;P1;durP2;ratioP2;P2;SDS_P1;SDS_P2;PMS_P1;PMS_P2;Temp;Humidity;BMP_temperature;BMP_pressure;BME280_temperature;BME280_humidity;BME280_pressure;Samples;Min_cycle;Max_cycle;Signal;HPM_P1;HPM_P2
2021/12/27 00:01:28;;;;;;;25.38;15.40;;;-0.40;99.90;;;;;;5085407;28;20075;-90
2021/12/27 00:03:56;;;;;;;29.17;16.20;;;-0.50;99.90;;;;;;5106873;27;20036;-89
2021/12/27 00:06:22;;;;;;;30.17;16.10;;;-0.50;99.90;;;;;;5096272;28;20297;-89
2021/12/27 00:08:50;;;;;;;27.80;16.63;;;-0.50;99.90;;;;;;5114474;28;20317;-90
2021/12/27 00:11:15;;;;;;;28.57;16.73;;;-0.60;99.90;;;;;;5102704;27;20324;-89
2021/12/27 00:13:42;;;;;;;26.47;16.30;;;-0.60;99.90;;;;;;5101750;28;20298;-88
2021/12/27 00:16:08;;;;;;;28.83;16.17;;;-0.60;99.90;;;;;;5111900;27;20054;-89
2021/12/27 00:18:34;;;;;;;29.87;15.47;;;-0.60;99.90;;;;;;5106459;28;20285;-89
2021/12/27 00:21:00;;;;;;;32.07;16.00;;;-0.60;99.90;;;;;;5116355;28;20292;-87
2021/12/27 00:23:26;;;;;;;29.13;16.43;;;-0.60;99.90;;;;;;5087544;28;20672;-89
2021/12/27 00:25:52;;;;;;;27.80;15.80;;;-0.60;99.90;;;;;;5087864;28;20047;-91
2021/12/27 00:28:18;;;;;;;25.50;15.47;;;-0.60;99.90;;;;;;5071850;28;20073;-89
2021/12/27 00:30:43;;;;;;;30.13;16.70;;;-0.60;99.90;;;;;;5101636;28;20050;-89
2021/12/27 00:33:09;;;;;;;27.90;16.73;;;-0.60;99.90;;;;;;5099311;28;20054;-88
2021/12/27 00:35:36;;;;;;;27.80;16.00;;;-0.60;99.90;;;;;;5104627;28;20091;-89
2021/12/27 00:38:03;;;;;;;28.70;16.63;;;-0.60;99.90;;;;;;5090966;28;20079;-87
2021/12/27 00:40:29;;;;;;;27.50;15.93;;;-0.50;99.90;;;;;;5097574;28;20265;-89
2021/12/27 00:42:55;;;;;;;28.40;16.43;;;-0.50;99.90;;;;;;5101588;28;20330;-89
2021/12/27 00:45:21;;;;;;;28.83;16.23;;;-0.50;99.90;;;;;;5085911;28;20293;-90
2021/12/27 00:47:48;;;;;;;28.77;16.43;;;-0.50;99.90;;;;;;5099089;28;21415;-90
2021/12/27 00:50:14;;;;;;;27.17;15.77;;;-0.50;99.90;;;;;;5067246;28;20039;-90
2021/12/27 00:52:41;;;;;;;27.87;15.77;;;-0.50;99.90;;;;;;5112002;28;20302;-90
2021/12/27 00:55:10;;;;;;;29.97;16.53;;;-0.50;99.90;;;;;;5102239;28;20289;-91
2021/12/27 00:57:36;;;;;;;31.37;17.27;;;-0.40;99.90;;;;;;5095617;28;20277;-89
2021/12/27 01:00:03;;;;;;;29.63;16.27;;;-0.40;99.90;;;;;;5086345;28;20310;-90
2021/12/27 01:02:30;;;;;;;29.63;16.83;;;-0.40;99.90;;;;;;5095606;27;20072;-90
2021/12/27 01:04:55;;;;;;;27.87;16.67;;;-0.40;99.90;;;;;;5108263;27;20297;-90
2021/12/27 01:07:21;;;;;;;28.07;17.13;;;-0.40;99.90;;;;;;5113507;27;20316;-89
2021/12/27 01:12:46;;;;;;;27.40;16.30;;;-0.40;99.90;;;;;;5109054;27;20108;-90
2021/12/27 01:17:48;;;;;;;28.87;16.60;;;-0.30;99.90;;;;;;5108904;28;20313;-90
2021/12/27 01:20:20;;;;;;;30.20;17.00;;;-0.30;99.90;;;;;;5098141;27;20292;-90
2021/12/27 01:22:46;;;;;;;30.48;17.20;;;-0.30;99.90;;;;;;5108728;27;20305;-90
2021/12/27 01:25:12;;;;;;;30.03;17.70;;;-0.30;99.90;;;;;;5107971;27;20080;-88
2021/12/27 01:27:39;;;;;;;27.33;16.53;;;-0.30;99.90;;;;;;5119720;28;20540;-89
2021/12/27 01:30:09;;;;;;;27.27;16.20;;;-0.30;99.90;;;;;;5073122;28;20295;-89
2021/12/27 01:32:41;;;;;;;29.53;17.23;;;-0.30;99.90;;;;;;5119142;27;20330;-90
2021/12/27 01:35:07;;;;;;;30.30;18.33;;;-0.30;99.90;;;;;;5118025;28;20305;-89
2021/12/27 01:37:33;;;;;;;28.10;17.17;;;-0.30;99.90;;;;;;5119279;27;20352;-90
2021/12/27 01:39:59;;;;;;;29.10;17.30;;;-0.30;99.90;;;;;;5077119;28;20370;-90
2021/12/27 01:42:25;;;;;;;29.83;17.70;;;-0.30;99.90;;;;;;5095119;27;20050;-90
2021/12/27 01:44:50;;;;;;;29.47;17.00;;;-0.30;99.90;;;;;;5107095;27;20043;-90
2021/12/27 01:47:16;;;;;;;29.30;16.80;;;-0.30;99.90;;;;;;5081704;28;20409;-89
2021/12/27 01:49:42;;;;;;;32.60;18.03;;;-0.30;99.90;;;;;;5104496;28;20052;-89
2021/12/27 01:52:08;;;;;;;29.63;16.77;;;-0.30;99.90;;;;;;5083477;28;20044;-88
2021/12/27 01:54:33;;;;;;;27.80;16.00;;;-0.30;99.90;;;;;;5065149;27;20039;-88
2021/12/27 01:57:00;;;;;;;30.13;17.87;;;-0.30;99.90;;;;;;5103806;27;20130;-87
2021/12/27 01:59:27;;;;;;;28.53;16.73;;;-0.20;99.90;;;;;;5081864;27;20035;-85
2021/12/27 02:01:53;;;;;;;31.60;18.60;;;-0.20;99.90;;;;;;5107031;27;20310;-89
2021/12/27 02:04:19;;;;;;;38.50;19.40;;;-0.20;99.90;;;;;;5106372;27;20312;-88
2021/12/27 02:06:45;;;;;;;29.10;17.37;;;-0.20;99.90;;;;;;5070848;28;20324;-88
2021/12/27 02:09:10;;;;;;;29.87;17.83;;;-0.20;99.90;;;;;;5091433;28;20039;-89
2021/12/27 02:11:36;;;;;;;27.00;16.33;;;-0.20;99.90;;;;;;5130960;27;20047;-88
2021/12/27 02:14:04;;;;;;;25.70;16.90;;;-0.20;99.90;;;;;;5107555;27;20058;-89
2021/12/27 02:16:30;;;;;;;29.80;18.00;;;-0.20;99.90;;;;;;5118618;27;20055;-89
2021/12/27 02:18:56;;;;;;;29.57;17.23;;;-0.20;99.90;;;;;;5102221;28;20281;-89
2021/12/27 02:21:24;;;;;;;29.80;18.47;;;-0.10;99.90;;;;;;5088338;28;20297;-88
2021/12/27 02:23:52;;;;;;;31.67;18.07;;;-0.10;99.90;;;;;;5119447;27;20058;-90
2021/12/27 02:26:18;;;;;;;31.30;17.93;;;-0.10;99.90;;;;;;5087595;28;20286;-91
2021/12/27 02:28:45;;;;;;;29.83;18.00;;;-0.10;99.90;;;;;;5083168;27;21123;-89
2021/12/27 02:31:11;;;;;;;30.00;17.30;;;-0.10;99.90;;;;;;5107242;27;20043;-89
2021/12/27 02:33:38;;;;;;;32.70;18.50;;;-0.10;99.90;;;;;;5084813;27;20318;-88
2021/12/27 02:36:05;;;;;;;31.30;17.80;;;-0.10;99.90;;;;;;5101173;28;20577;-89
2021/12/27 02:38:34;;;;;;;32.33;18.93;;;-0.10;99.90;;;;;;5082439;27;20975;-89
2021/12/27 02:41:01;;;;;;;32.53;19.03;;;-0.10;99.90;;;;;;5117594;28;20285;-85
2021/12/27 02:43:29;;;;;;;32.63;17.93;;;-0.10;99.90;;;;;;5071801;27;20305;-88
2021/12/27 02:45:58;;;;;;;30.80;18.53;;;0.00;99.90;;;;;;5105418;27;20395;-89
2021/12/27 02:48:27;;;;;;;32.47;17.77;;;0.00;99.90;;;;;;5106559;27;20300;-89
2021/12/27 02:50:55;;;;;;;30.63;17.97;;;0.00;99.90;;;;;;5085395;28;20313;-91
2021/12/27 02:53:22;;;;;;;36.57;18.73;;;0.00;99.90;;;;;;5114105;27;20293;-89
2021/12/27 02:55:51;;;;;;;28.83;16.90;;;0.00;99.90;;;;;;5119752;27;20358;-88
2021/12/27 02:58:17;;;;;;;30.53;18.10;;;0.00;99.90;;;;;;5113646;28;20323;-88
2021/12/27 03:01:02;;;;;;;30.50;17.40;;;0.00;99.90;;;;;;5078703;27;20297;-89
2021/12/27 03:03:28;;;;;;;30.63;17.47;;;0.00;99.90;;;;;;5121008;27;20849;-90
2021/12/27 03:05:54;;;;;;;29.40;17.23;;;0.00;99.90;;;;;;5110643;27;20281;-90
2021/12/27 03:08:22;;;;;;;30.33;18.97;;;-0.10;99.90;;;;;;5099317;27;20281;-90
2021/12/27 03:10:54;;;;;;;31.83;18.33;;;0.00;99.90;;;;;;5101904;27;20087;-91
2021/12/27 03:13:22;;;;;;;;;;;0.00;99.90;;;;;;5117302;28;20384;-91
2021/12/27 03:15:56;;;;;;;31.33;18.33;;;-0.10;99.90;;;;;;5097557;28;19939;-90
2021/12/27 03:18:22;;;;;;;31.23;18.50;;;0.00;99.90;;;;;;5103338;28;20843;-90
2021/12/27 03:20:51;;;;;;;30.70;18.27;;;0.00;99.90;;;;;;5092749;27;20323;-89
2021/12/27 03:23:18;;;;;;;30.67;18.20;;;0.00;99.90;;;;;;5094280;27;20312;-91
2021/12/27 03:25:44;;;;;;;29.77;18.10;;;0.00;99.90;;;;;;5092767;27;20304;-90
2021/12/27 03:28:10;;;;;;;31.97;18.47;;;0.00;99.90;;;;;;5087846;27;20289;-90
2021/12/27 03:30:37;;;;;;;29.23;18.30;;;0.00;99.90;;;;;;5105589;27;20050;-90
2021/12/27 03:33:04;;;;;;;32.00;17.47;;;0.10;99.90;;;;;;5113740;28;20304;-90
2021/12/27 03:35:36;;;;;;;33.13;18.90;;;0.10;99.90;;;;;;5085293;28;20289;-91
2021/12/27 03:38:04;;;;;;;27.83;16.77;;;0.10;99.90;;;;;;5084461;28;20393;-90
2021/12/27 03:40:29;;;;;;;32.60;18.93;;;0.10;99.90;;;;;;5100214;27;20039;-90
2021/12/27 03:42:56;;;;;;;32.50;18.77;;;0.10;99.90;;;;;;5090807;27;20355;-90
2021/12/27 03:45:28;;;;;;;29.93;18.53;;;0.10;99.90;;;;;;5121042;27;20047;-91
2021/12/27 03:47:54;;;;;;;;;;;0.10;99.90;;;;;;5122522;27;20308;-89
2021/12/27 03:50:20;;;;;;;32.17;17.80;;;0.10;99.90;;;;;;5083245;28;20282;-90
2021/12/27 03:52:46;;;;;;;31.97;18.63;;;0.10;99.90;;;;;;5100212;27;20035;-90
2021/12/27 03:55:13;;;;;;;29.47;18.90;;;0.10;99.90;;;;;;5084587;28;20303;-86
2021/12/27 03:57:41;;;;;;;31.37;18.20;;;0.20;99.90;;;;;;5111559;27;20296;-91
2021/12/27 04:02:39;;;;;;;31.23;18.07;;;0.20;99.90;;;;;;5112609;27;20350;-90
2021/12/27 04:05:08;;;;;;;30.70;17.80;;;0.20;99.90;;;;;;5094792;27;20284;-91
2021/12/27 04:07:36;;;;;;;37.40;19.57;;;0.20;99.90;;;;;;5084836;27;20039;-90
2021/12/27 04:10:04;;;;;;;31.43;18.33;;;0.20;99.90;;;;;;5091195;27;20329;-91
2021/12/27 04:12:30;;;;;;;33.13;19.13;;;0.20;99.90;;;;;;5119406;27;20289;-91
2021/12/27 04:14:56;;;;;;;30.33;17.73;;;0.20;99.90;;;;;;5093687;28;20302;-90
2021/12/27 04:17:22;;;;;;;31.33;19.10;;;0.20;99.90;;;;;;5102132;28;20071;-91
2021/12/27 04:19:48;;;;;;;36.57;19.87;;;0.20;99.90;;;;;;5084065;27;20717;-91
2021/12/27 04:22:14;;;;;;;30.30;18.47;;;0.20;99.90;;;;;;5104787;27;20047;-85
2021/12/27 04:24:39;;;;;;;33.23;18.73;;;0.20;99.90;;;;;;5082915;28;20144;-91
2021/12/27 04:27:05;;;;;;;35.33;19.33;;;0.20;99.90;;;;;;5115414;28;20069;-91
2021/12/27 04:29:31;;;;;;;30.97;17.90;;;0.20;99.90;;;;;;5054338;28;20077;-91
2021/12/27 04:31:56;;;;;;;32.57;18.63;;;0.20;99.90;;;;;;5067859;28;20608;-89
2021/12/27 04:34:22;;;;;;;34.13;18.93;;;0.20;99.90;;;;;;5087980;28;20043;-90
2021/12/27 04:36:48;;;;;;;33.40;19.43;;;0.30;99.90;;;;;;5072454;28;20043;-91
2021/12/27 04:39:13;;;;;;;34.97;20.00;;;0.30;99.90;;;;;;5074458;28;20040;-89
2021/12/27 04:41:39;;;;;;;31.90;18.80;;;0.20;99.90;;;;;;5108761;28;20119;-89
2021/12/27 04:44:05;;;;;;;33.57;19.67;;;0.20;99.90;;;;;;5108669;28;20073;-90
2021/12/27 04:46:31;;;;;;;33.87;19.70;;;0.20;99.90;;;;;;5102751;28;20043;-90
2021/12/27 04:48:57;;;;;;;33.23;18.30;;;0.20;99.90;;;;;;5079220;28;20040;-90
2021/12/27 04:51:22;;;;;;;29.73;19.23;;;0.30;99.90;;;;;;5111156;28;20076;-89
2021/12/27 04:53:49;;;;;;;33.53;18.70;;;0.20;99.90;;;;;;5113146;28;20035;-92
2021/12/27 04:56:15;;;;;;;34.07;19.40;;;0.30;99.90;;;;;;5122012;28;20043;-91
2021/12/27 04:58:44;;;;;;;37.23;19.70;;;0.30;99.90;;;;;;5089084;28;20278;-91
2021/12/27 05:01:11;;;;;;;36.70;19.73;;;0.30;99.90;;;;;;5086027;28;20048;-91
2021/12/27 05:03:37;;;;;;;32.90;19.97;;;0.30;99.90;;;;;;5090999;28;20305;-90
2021/12/27 05:06:03;;;;;;;35.80;19.60;;;0.30;99.90;;;;;;5101894;28;20285;-90
2021/12/27 05:08:29;;;;;;;32.87;19.03;;;0.30;99.90;;;;;;5107782;28;20297;-89
2021/12/27 05:10:54;;;;;;;34.63;20.13;;;0.30;99.90;;;;;;5088471;28;20291;-91
2021/12/27 05:13:20;;;;;;;31.27;18.80;;;0.30;99.90;;;;;;5101363;28;20054;-89
2021/12/27 05:15:47;;;;;;;35.03;19.57;;;0.30;99.90;;;;;;5067821;28;20058;-90
2021/12/27 05:18:13;;;;;;;35.50;19.43;;;0.30;99.90;;;;;;5085295;28;20039;-90
2021/12/27 05:20:39;;;;;;;32.27;19.10;;;0.30;99.90;;;;;;5083340;28;20334;-90
2021/12/27 05:23:04;;;;;;;32.83;18.40;;;0.30;99.90;;;;;;5080409;28;20040;-90
2021/12/27 05:25:30;;;;;;;31.30;18.73;;;0.30;99.90;;;;;;5102515;28;20074;-90
2021/12/27 05:27:56;;;;;;;35.60;20.03;;;0.30;99.90;;;;;;5075294;28;20040;-90
2021/12/27 05:30:22;;;;;;;31.13;19.00;;;0.30;99.90;;;;;;5079738;28;20094;-89
2021/12/27 05:32:48;;;;;;;38.10;20.50;;;0.30;99.90;;;;;;5086204;28;20332;-90
2021/12/27 05:35:15;;;;;;;34.27;19.57;;;0.30;99.90;;;;;;5093121;28;20962;-89
2021/12/27 05:37:42;;;;;;;34.30;20.00;;;0.30;99.90;;;;;;5100968;28;20047;-89
2021/12/27 05:40:11;;;;;;;34.93;20.77;;;0.30;99.90;;;;;;5103984;28;20284;-90
2021/12/27 05:42:37;;;;;;;29.50;19.27;;;0.40;99.90;;;;;;5097558;28;20320;-89
2021/12/27 05:45:07;;;;;;;32.33;19.00;;;0.40;99.90;;;;;;5100176;28;20282;-90
2021/12/27 05:47:32;;;;;;;36.13;20.57;;;0.40;99.90;;;;;;5089667;27;20304;-89
2021/12/27 05:49:58;;;;;;;36.70;19.33;;;0.30;99.90;;;;;;5079527;27;20288;-89
2021/12/27 05:52:24;;;;;;;36.13;19.80;;;0.40;99.90;;;;;;5104823;28;20066;-90
2021/12/27 05:54:50;;;;;;;35.07;20.07;;;0.40;99.90;;;;;;5103789;27;20043;-91
2021/12/27 05:57:15;;;;;;;39.23;20.53;;;0.40;99.90;;;;;;5100235;27;20039;-90
2021/12/27 05:59:41;;;;;;;33.60;19.57;;;0.30;99.90;;;;;;5086406;28;20494;-91
2021/12/27 06:02:07;;;;;;;33.77;20.43;;;0.30;99.90;;;;;;5056502;28;20519;-90
2021/12/27 06:04:33;;;;;;;35.00;20.63;;;0.40;99.90;;;;;;5099379;27;20039;-90
2021/12/27 06:06:58;;;;;;;35.23;19.53;;;0.40;99.90;;;;;;5098698;27;20050;-91
2021/12/27 06:09:24;;;;;;;36.80;20.80;;;0.40;99.90;;;;;;5096329;28;20043;-89
2021/12/27 06:11:50;;;;;;;36.17;20.67;;;0.40;99.90;;;;;;5115604;28;20046;-91
2021/12/27 06:14:15;;;;;;;37.87;21.23;;;0.40;99.90;;;;;;5104513;28;20101;-90
2021/12/27 06:16:41;;;;;;;37.40;20.47;;;0.40;99.90;;;;;;5086587;28;20032;-90
2021/12/27 06:19:07;;;;;;;33.37;20.03;;;0.40;99.90;;;;;;5086902;28;20051;-90
2021/12/27 06:21:33;;;;;;;36.70;20.90;;;0.40;99.90;;;;;;5078183;28;20073;-89
2021/12/27 06:24:00;;;;;;;35.20;20.80;;;0.40;99.90;;;;;;5100729;27;20107;-89
2021/12/27 06:26:26;;;;;;;42.33;22.17;;;0.40;99.90;;;;;;5079616;27;20296;-89
2021/12/27 06:28:52;;;;;;;36.43;20.37;;;0.40;99.90;;;;;;5117196;28;20289;-90
2021/12/27 06:31:17;;;;;;;33.77;18.97;;;0.40;99.90;;;;;;5097471;28;20379;-89
2021/12/27 06:33:43;;;;;;;37.20;21.13;;;0.40;99.90;;;;;;5086075;28;20633;-90
2021/12/27 06:36:09;;;;;;;36.00;21.77;;;0.40;99.90;;;;;;5088864;27;20071;-90
2021/12/27 06:38:35;;;;;;;36.17;21.97;;;0.30;99.90;;;;;;5089006;27;20043;-89
2021/12/27 06:41:01;;;;;;;36.60;21.70;;;0.40;99.90;;;;;;5082291;27;20040;-90
2021/12/27 06:43:30;;;;;;;40.10;21.63;;;0.40;99.90;;;;;;5094221;28;20043;-88
2021/12/27 06:45:57;;;;;;;35.97;21.50;;;0.40;99.90;;;;;;5108043;27;20410;-90
2021/12/27 06:48:23;;;;;;;34.20;20.50;;;0.40;99.90;;;;;;5109255;27;20296;-90
2021/12/27 06:50:48;;;;;;;33.70;20.67;;;0.40;99.90;;;;;;5109126;27;20278;-90
2021/12/27 06:53:15;;;;;;;35.73;20.23;;;0.40;99.90;;;;;;5098450;27;20076;-90
2021/12/27 06:55:45;;;;;;;37.77;21.67;;;0.40;99.90;;;;;;5105071;28;20047;-90
2021/12/27 06:58:11;;;;;;;34.87;20.30;;;0.40;99.90;;;;;;5114766;27;20302;-88
2021/12/27 07:00:37;;;;;;;35.33;20.63;;;0.40;99.90;;;;;;5106673;27;20289;-88
2021/12/27 07:03:02;;;;;;;35.73;21.67;;;0.40;99.90;;;;;;5096948;27;20297;-90
2021/12/27 07:05:28;;;;;;;37.17;21.40;;;0.50;99.90;;;;;;5101438;28;20039;-88
2021/12/27 07:07:54;;;;;;;39.13;21.57;;;0.40;99.90;;;;;;5102407;27;20043;-82
2021/12/27 07:10:22;;;;;;;38.30;21.83;;;0.50;99.90;;;;;;5101056;28;20051;-89
2021/12/27 07:12:48;;;;;;;36.07;20.63;;;0.50;99.90;;;;;;5119289;27;20072;-91
2021/12/27 07:15:14;;;;;;;37.77;21.20;;;0.50;99.90;;;;;;5117282;27;20358;-86
2021/12/27 07:17:40;;;;;;;37.90;21.87;;;0.50;99.90;;;;;;5117716;27;20303;-92
2021/12/27 07:20:07;;;;;;;37.93;21.63;;;0.50;99.90;;;;;;5115246;27;20645;-90
2021/12/27 07:22:34;;;;;;;41.90;22.63;;;0.50;99.90;;;;;;5095310;27;20911;-90
2021/12/27 07:24:59;;;;;;;41.07;22.40;;;0.50;99.90;;;;;;5108984;28;20314;-90
2021/12/27 07:27:25;;;;;;;38.40;22.90;;;0.50;99.90;;;;;;5078985;28;20419;-90
2021/12/27 07:29:51;;;;;;;41.00;22.93;;;0.50;99.90;;;;;;5076197;28;20043;-89
2021/12/27 07:32:17;;;;;;;39.43;23.70;;;0.50;99.90;;;;;;5100141;28;20047;-90
2021/12/27 07:34:43;;;;;;;37.87;21.50;;;0.50;99.90;;;;;;5093967;28;20279;-86
2021/12/27 07:37:10;;;;;;;41.47;21.77;;;0.50;99.90;;;;;;5110817;28;20344;-88
2021/12/27 07:39:36;;;;;;;34.90;21.93;;;0.50;99.90;;;;;;5098369;28;20288;-87
2021/12/27 07:42:04;;;;;;;37.80;21.07;;;0.50;99.90;;;;;;5078860;28;20310;-84
2021/12/27 07:44:29;;;;;;;39.10;23.30;;;0.50;99.90;;;;;;5089305;28;20036;-79
2021/12/27 07:46:55;;;;;;;39.80;21.17;;;0.50;99.90;;;;;;5089577;28;20316;-88
2021/12/27 07:49:21;;;;;;;40.03;22.60;;;0.50;99.90;;;;;;5078139;28;20364;-89
2021/12/27 07:51:47;;;;;;;34.93;21.77;;;0.50;99.90;;;;;;5094601;28;20056;-85
2021/12/27 07:54:12;;;;;;;39.43;22.27;;;0.60;99.90;;;;;;5074863;28;20039;-84
2021/12/27 07:56:38;;;;;;;39.63;21.53;;;0.50;99.90;;;;;;5067456;28;20093;-85
2021/12/27 07:59:05;;;;;;;39.43;21.27;;;0.60;99.90;;;;;;5086450;28;20043;-85
2021/12/27 08:01:36;;;;;;;37.77;20.70;;;0.60;99.90;;;;;;5089855;28;20034;-86
2021/12/27 08:04:03;;;;;;;39.57;22.67;;;0.60;99.90;;;;;;5085352;28;20377;-86
2021/12/27 08:06:29;;;;;;;44.47;22.90;;;0.60;99.90;;;;;;5072889;28;20305;-86
2021/12/27 08:08:55;;;;;;;39.07;21.73;;;0.70;99.90;;;;;;5112988;28;20380;-87
2021/12/27 08:11:21;;;;;;;38.63;21.77;;;0.70;99.90;;;;;;5089411;28;20724;-86
2021/12/27 08:13:47;;;;;;;37.23;20.63;;;0.70;99.90;;;;;;5081948;28;20051;-86
2021/12/27 08:16:13;;;;;;;37.43;19.73;;;0.70;99.90;;;;;;5074957;28;20317;-86
2021/12/27 08:18:41;;;;;;;42.13;22.40;;;0.80;99.90;;;;;;5087514;28;20851;-85
2021/12/27 08:21:07;;;;;;;37.43;21.73;;;0.80;99.90;;;;;;5108216;28;20048;-87
2021/12/27 08:23:33;;;;;;;37.17;22.07;;;0.80;99.90;;;;;;5091936;28;20390;-86
2021/12/27 08:25:59;;;;;;;35.97;21.47;;;0.80;99.90;;;;;;5084032;27;20058;-85
2021/12/27 08:28:24;;;;;;;43.77;22.80;;;0.80;99.90;;;;;;5085136;28;20857;-86
2021/12/27 08:30:50;;;;;;;43.00;22.37;;;0.80;99.90;;;;;;5093093;28;20051;-84
2021/12/27 08:33:16;;;;;;;37.00;21.10;;;0.80;99.90;;;;;;5102755;28;20043;-84
2021/12/27 08:35:42;;;;;;;38.37;20.97;;;0.90;99.90;;;;;;5092142;28;20078;-85
2021/12/27 08:38:08;;;;;;;42.87;21.63;;;0.90;99.90;;;;;;5084116;28;20043;-85
2021/12/27 08:40:34;;;;;;;39.73;21.00;;;0.90;99.90;;;;;;5096981;28;20795;-85
2021/12/27 08:42:59;;;;;;;41.57;23.17;;;0.90;99.90;;;;;;5096214;28;20319;-86
2021/12/27 08:45:25;;;;;;;39.47;21.60;;;0.90;99.90;;;;;;5114690;28;20392;-85
2021/12/27 08:47:51;;;;;;;42.30;22.47;;;0.90;99.90;;;;;;5105138;28;20035;-87
2021/12/27 08:50:17;;;;;;;39.97;21.23;;;0.90;99.90;;;;;;5091786;28;20046;-89
2021/12/27 08:52:45;;;;;;;40.07;22.00;;;0.90;99.90;;;;;;5085174;28;20102;-86
2021/12/27 08:55:12;;;;;;;39.37;21.50;;;0.90;99.90;;;;;;5094618;28;20304;-88
2021/12/27 08:57:39;;;;;;;41.90;21.43;;;0.90;99.90;;;;;;5107860;28;20828;-85
2021/12/27 09:00:07;;;;;;;41.07;21.40;;;1.00;99.90;;;;;;5093484;28;20317;-85
2021/12/27 09:02:34;;;;;;;45.60;22.50;;;1.00;99.90;;;;;;5115766;28;20304;-85
2021/12/27 09:04:59;;;;;;;44.13;22.47;;;1.00;99.90;;;;;;5079238;28;20300;-85
2021/12/27 09:07:25;;;;;;;48.37;22.80;;;1.00;99.90;;;;;;5081749;28;20779;-85
2021/12/27 09:09:51;;;;;;;44.87;22.73;;;1.00;99.90;;;;;;5097213;28;20035;-85
2021/12/27 09:12:18;;;;;;;44.67;22.80;;;1.00;99.90;;;;;;5110996;28;20039;-84
2021/12/27 09:14:44;;;;;;;47.73;23.17;;;1.00;99.90;;;;;;5104093;28;20040;-83
2021/12/27 09:17:09;;;;;;;44.77;21.27;;;1.00;99.90;;;;;;5101341;28;20345;-85
2021/12/27 09:19:35;;;;;;;50.80;24.50;;;1.10;99.90;;;;;;5084431;28;20089;-85
2021/12/27 09:22:01;;;;;;;48.73;23.40;;;1.10;99.90;;;;;;5100522;27;20046;-85
2021/12/27 09:24:28;;;;;;;44.47;21.63;;;1.10;99.90;;;;;;5108916;28;20045;-85
2021/12/27 09:26:55;;;;;;;50.07;24.37;;;1.10;99.90;;;;;;5091916;28;20055;-85
2021/12/27 09:29:20;;;;;;;53.47;24.47;;;1.20;99.90;;;;;;5083713;28;20282;-86
2021/12/27 09:31:46;;;;;;;50.43;22.97;;;1.20;99.90;;;;;;5099481;28;20285;-86
2021/12/27 09:34:12;;;;;;;54.60;23.43;;;1.20;99.90;;;;;;5098317;28;20108;-85
2021/12/27 09:36:38;;;;;;;54.30;24.93;;;1.20;99.90;;;;;;5087192;28;20134;-84
2021/12/27 09:39:05;;;;;;;51.50;23.47;;;1.20;99.90;;;;;;5091246;28;20057;-82
2021/12/27 09:41:30;;;;;;;60.47;27.70;;;1.20;99.90;;;;;;5110213;28;20438;-84
2021/12/27 09:43:56;;;;;;;62.03;26.60;;;1.30;99.90;;;;;;5099062;28;20298;-89
2021/12/27 09:46:22;;;;;;;59.30;25.20;;;1.30;99.90;;;;;;5090289;28;20054;-88
2021/12/27 09:48:51;;;;;;;62.40;25.40;;;1.30;99.90;;;;;;5095056;28;20036;-88
2021/12/27 09:51:17;;;;;;;61.23;26.27;;;1.30;99.90;;;;;;5077424;28;20290;-90
2021/12/27 09:53:44;;;;;;;58.97;25.07;;;1.40;99.90;;;;;;5085717;28;20348;-87
2021/12/27 09:56:11;;;;;;;63.77;26.17;;;1.30;99.90;;;;;;5072478;28;20047;-88
2021/12/27 09:58:38;;;;;;;68.37;25.70;;;1.40;99.90;;;;;;5089553;28;20319;-86
2021/12/27 10:01:06;;;;;;;62.73;25.57;;;1.40;99.90;;;;;;5064671;28;20367;-91
2021/12/27 10:03:50;;;;;;;69.43;27.47;;;1.50;99.90;;;;;;5085871;28;20306;-86
2021/12/27 10:06:19;;;;;;;67.90;28.17;;;1.50;99.90;;;;;;5081105;28;20754;-89
2021/12/27 10:08:52;;;;;;;65.23;27.40;;;1.50;99.90;;;;;;5083828;28;20286;-89
2021/12/27 10:11:25;;;;;;;67.60;27.30;;;1.50;99.90;;;;;;5097801;28;20293;-90
2021/12/27 10:14:13;;;;;;;71.87;29.23;;;1.50;99.90;;;;;;5086872;28;20317;-89
2021/12/27 10:16:52;;;;;;;67.87;28.03;;;1.50;99.90;;;;;;5079284;28;20324;-90
2021/12/27 10:19:20;;;;;;;69.97;29.20;;;1.50;99.90;;;;;;5082248;28;20281;-92
2021/12/27 10:21:47;;;;;;;78.33;30.40;;;1.50;99.90;;;;;;5098493;28;20385;-89
2021/12/27 10:24:16;;;;;;;76.73;30.17;;;1.50;99.90;;;;;;5067876;27;20341;-94
2021/12/27 10:26:44;;;;;;;77.93;30.77;;;1.50;99.90;;;;;;5103428;27;20333;-88
2021/12/27 10:29:25;;;;;;;69.90;29.90;;;1.50;99.90;;;;;;5096211;27;20288;-90
2021/12/27 10:32:10;;;;;;;69.20;28.40;;;1.60;99.90;;;;;;5116004;27;20619;-90
2021/12/27 10:35:06;;;;;;;81.90;32.47;;;1.60;99.90;;;;;;5117751;27;20292;-93
2021/12/27 10:37:33;;;;;;;85.07;32.60;;;1.60;99.90;;;;;;5056891;27;20293;-93
2021/12/27 10:40:12;;;;;;;85.93;32.03;;;1.60;99.90;;;;;;5100992;28;20285;-94
2021/12/27 10:42:46;;;;;;;82.20;29.57;;;1.70;99.90;;;;;;5086514;27;20313;-92
2021/12/27 10:45:19;;;;;;;87.57;31.50;;;1.70;99.90;;;;;;5093140;27;20289;-94
2021/12/27 10:47:53;;;;;;;85.97;32.37;;;1.70;99.90;;;;;;5095101;28;20297;-92
2021/12/27 10:50:28;;;;;;;81.67;30.17;;;1.80;99.90;;;;;;5108462;27;20293;-92
2021/12/27 10:53:04;;;;;;;88.03;30.73;;;1.80;99.90;;;;;;5092923;27;20311;-91
2021/12/27 10:55:38;;;;;;;80.63;31.27;;;1.70;99.90;;;;;;5115847;27;20346;-92
2021/12/27 10:58:25;;;;;;;93.17;33.77;;;1.70;99.90;;;;;;5109193;27;20303;-85
2021/12/27 11:01:03;;;;;;;83.20;31.60;;;1.80;99.90;;;;;;5103706;27;20284;-86
2021/12/27 11:03:44;;;;;;;85.50;31.63;;;1.80;99.90;;;;;;5105717;27;20307;-85
2021/12/27 11:06:13;;;;;;;79.13;31.23;;;1.80;99.90;;;;;;5077498;27;20287;-86
2021/12/27 11:08:42;;;;;;;90.70;31.87;;;1.80;99.90;;;;;;5117436;27;20335;-91
2021/12/27 11:11:09;;;;;;;101.87;33.23;;;1.80;99.90;;;;;;5101345;28;20293;-91
2021/12/27 11:13:35;;;;;;;92.13;33.37;;;1.80;99.90;;;;;;5088859;27;20850;-91
2021/12/27 11:16:02;;;;;;;92.50;33.33;;;1.80;99.90;;;;;;5070883;27;20289;-92
2021/12/27 11:18:28;;;;;;;97.30;32.80;;;1.80;99.90;;;;;;5084425;27;20295;-91
2021/12/27 11:20:56;;;;;;;81.07;32.53;;;1.80;99.90;;;;;;5116046;27;20277;-90
2021/12/27 11:23:24;;;;;;;96.47;33.23;;;1.80;99.90;;;;;;5097508;28;20393;-91
2021/12/27 11:26:03;;;;;;;95.60;33.37;;;1.90;99.90;;;;;;5089011;28;20315;-91
2021/12/27 11:28:33;;;;;;;90.67;33.30;;;1.90;99.90;;;;;;5086550;28;20781;-90
2021/12/27 11:31:03;;;;;;;101.80;34.63;;;1.90;99.90;;;;;;5080957;28;20324;-88
2021/12/27 11:33:30;;;;;;;96.83;34.53;;;1.90;99.90;;;;;;5068932;28;20294;-84
2021/12/27 11:35:58;;;;;;;90.43;34.77;;;1.90;99.90;;;;;;5086667;28;20338;-83
2021/12/27 11:38:31;;;;;;;95.87;32.90;;;1.90;99.90;;;;;;5100709;28;20328;-83
2021/12/27 11:40:57;;;;;;;103.23;35.97;;;1.90;99.90;;;;;;5128298;27;20293;-84
2021/12/27 11:43:23;;;;;;;117.53;36.90;;;1.90;99.90;;;;;;5126475;27;20378;-84
2021/12/27 11:45:54;;;;;;;101.70;33.97;;;1.90;99.90;;;;;;5089302;28;20040;-84
2021/12/27 11:48:25;;;;;;;97.70;34.03;;;1.90;99.90;;;;;;5084450;28;20312;-84
2021/12/27 11:50:57;;;;;;;121.57;36.53;;;1.90;99.90;;;;;;5095673;28;20085;-84
2021/12/27 11:53:37;;;;;;;111.43;35.10;;;2.00;99.90;;;;;;5083618;28;20062;-84
2021/12/27 11:56:08;;;;;;;110.20;35.53;;;2.00;99.90;;;;;;5112533;28;20434;-84
2021/12/27 11:58:41;;;;;;;104.53;34.13;;;1.90;99.90;;;;;;5085145;28;20353;-84
2021/12/27 12:01:22;;;;;;;98.97;34.17;;;1.90;99.90;;;;;;5093501;28;20040;-84
2021/12/27 12:03:50;;;;;;;121.90;36.50;;;1.90;99.90;;;;;;5098960;28;20797;-84
2021/12/27 12:06:36;;;;;;;115.43;35.73;;;1.90;99.90;;;;;;5128716;27;20288;-84
2021/12/27 12:09:15;;;;;;;147.80;43.33;;;1.80;99.90;;;;;;5098683;28;20277;-84
2021/12/27 12:11:43;;;;;;;140.30;38.60;;;1.90;99.90;;;;;;5097976;28;20364;-83
2021/12/27 12:14:34;;;;;;;147.37;42.70;;;1.90;99.90;;;;;;5096824;28;20048;-84
2021/12/27 12:17:06;;;;;;;143.50;40.73;;;2.10;99.90;;;;;;5113062;28;20372;-83
2021/12/27 12:19:44;;;;;;;122.50;38.13;;;2.10;99.90;;;;;;5099113;28;20125;-83
2021/12/27 12:22:35;;;;;;;163.47;45.57;;;2.10;99.90;;;;;;5111316;28;20070;-84
2021/12/27 12:25:19;;;;;;;136.77;39.10;;;2.20;99.90;;;;;;5093647;28;20296;-83
2021/12/27 12:27:59;;;;;;;124.33;36.40;;;2.20;99.90;;;;;;5101047;28;20847;-81
2021/12/27 12:30:32;;;;;;;128.67;35.77;;;2.20;99.90;;;;;;5115097;28;20748;-80
2021/12/27 12:33:25;;;;;;;134.80;37.80;;;2.20;99.90;;;;;;5090912;28;20293;-80
2021/12/27 12:36:00;;;;;;;111.97;36.40;;;2.20;99.90;;;;;;5110636;28;20052;-80
2021/12/27 12:38:30;;;;;;;121.80;37.60;;;2.20;99.90;;;;;;5103850;28;20077;-80
2021/12/27 12:41:20;;;;;;;133.07;38.50;;;2.20;99.90;;;;;;5113140;28;20044;-80
2021/12/27 12:43:51;;;;;;;146.30;40.00;;;2.30;99.90;;;;;;5110156;28;20075;-80
2021/12/27 12:46:41;;;;;;;146.13;40.70;;;2.20;99.90;;;;;;5114957;28;20048;-79
2021/12/27 12:49:09;;;;;;;115.87;36.23;;;2.20;99.90;;;;;;5112979;28;20087;-82